Decoded Metar for GCRR (LANZAROTE in SPAIN) (IATA:ACE) | Meteo·Mobile Aviation Weather
aviador You're here:

GCRR Decoded Metar

LANZAROTE in SPAIN
Report Time2019-07-19 18:30:00
UTC Time2019-07-19 18:39:56
Flight Rules vfr VFR
Wind360° at 18 kt
W.Decomp.*RWY 03: 16.3 kt HW 7.6 kt LCW
Visibility9999 m
Phenomena:N/A
Clouds:Few 022 Hf
Broken 030 Hf
Expected CloudBase > 2,000 ft AGL from Temp-Dew spread
Ceiling3,000 ft
Temp24°C (ISA +9)
Dew Point19°C (74% RH)
AAT20.8°C
QNH1015 hPa
Density Alt1,430 ft
Elevation131 ft
Report Wrong Elevation
Raw Report
METAR GCRR 191830Z 36018KT 330V030 9999 FEW022 BKN030 24/19 Q1015=

Extra information for GCRR:More info

Metar Taf Metar & Taf Last 4 Metars F.Rules Stats Wind Profile Meteogram Temp Stats Airport Information Weather charts Add Link Nearby VenuesMetar ALERT Operation Metar Decoded Social comments